Time;durP1;ratioP1;P1;durP2;ratioP2;P2;SDS_P1;SDS_P2;PMS_P1;PMS_P2;Temp;Humidity;BMP_temperature;BMP_pressure;BME280_temperature;BME280_humidity;BME280_pressure;Samples;Min_cycle;Max_cycle;Signal;HPM_P1;HPM_P2
2022/11/14 00:00:07;;;;;;;15.52;10.68;;;0.80;67.70;;;;;;4987319;28;20030;-68
2022/11/14 00:02:33;;;;;;;16.35;10.98;;;1.00;67.30;;;;;;5001676;28;20022;-68
2022/11/14 00:04:58;;;;;;;17.08;10.68;;;1.10;67.40;;;;;;4996018;28;20438;-68
2022/11/14 00:07:24;;;;;;;13.07;8.75;;;1.20;67.40;;;;;;4995297;28;20113;-68
2022/11/14 00:09:52;;;;;;;12.95;9.60;;;1.20;67.30;;;;;;5019605;28;20076;-69
2022/11/14 00:12:18;;;;;;;16.13;11.95;;;1.40;66.70;;;;;;5008402;28;20069;-68
2022/11/14 00:14:43;;;;;;;16.98;11.48;;;1.40;67.90;;;;;;5005186;28;20102;-68
2022/11/14 00:17:09;;;;;;;18.08;11.98;;;1.20;69.30;;;;;;4996936;28;20355;-68
2022/11/14 00:19:35;;;;;;;18.40;12.32;;;1.10;69.80;;;;;;5007948;28;20304;-68
2022/11/14 00:22:00;;;;;;;16.40;12.00;;;0.90;70.70;;;;;;4993134;28;20025;-69
2022/11/14 00:24:26;;;;;;;16.83;12.50;;;0.80;69.00;;;;;;4998419;28;20081;-68
2022/11/14 00:26:51;;;;;;;14.50;10.70;;;0.80;69.30;;;;;;5003783;28;20404;-68
2022/11/14 00:29:17;;;;;;;17.05;12.32;;;0.80;68.20;;;;;;5033647;28;20108;-68
2022/11/14 00:31:43;;;;;;;16.67;11.85;;;0.80;68.70;;;;;;5046487;28;20418;-68
2022/11/14 00:34:08;;;;;;;15.40;10.90;;;0.80;68.70;;;;;;5023831;28;20083;-68
2022/11/14 00:36:35;;;;;;;15.63;11.02;;;0.80;68.60;;;;;;5028629;28;20088;-69
2022/11/14 00:39:01;;;;;;;19.23;13.02;;;0.70;69.40;;;;;;5016747;28;20028;-68
2022/11/14 00:41:27;;;;;;;23.15;18.73;;;0.70;69.20;;;;;;5025664;28;20022;-68
2022/11/14 00:43:52;;;;;;;25.58;22.20;;;0.80;68.90;;;;;;5029417;28;20156;-68
2022/11/14 00:46:18;;;;;;;19.10;16.50;;;0.80;69.20;;;;;;5023427;28;20025;-69
2022/11/14 00:48:43;;;;;;;17.90;13.73;;;0.90;69.40;;;;;;5042187;28;20317;-68
2022/11/14 00:51:10;;;;;;;16.98;11.70;;;0.90;69.10;;;;;;5043724;28;20038;-67
2022/11/14 00:53:38;;;;;;;16.40;11.05;;;1.00;69.50;;;;;;5014180;28;20022;-68
2022/11/14 00:56:04;;;;;;;19.02;13.45;;;1.00;69.20;;;;;;5016742;28;20041;-68
2022/11/14 00:58:30;;;;;;;21.33;14.88;;;1.00;69.90;;;;;;5027062;28;20017;-69
2022/11/14 01:00:56;;;;;;;17.15;13.30;;;1.00;71.20;;;;;;5028650;28;20033;-69
2022/11/14 01:03:21;;;;;;;22.80;17.48;;;0.90;70.80;;;;;;5023474;28;20232;-69
2022/11/14 01:05:49;;;;;;;23.90;17.70;;;0.90;69.70;;;;;;5027636;28;20034;-69
2022/11/14 01:08:16;;;;;;;19.90;15.30;;;0.90;70.80;;;;;;5021584;28;20165;-68
2022/11/14 01:10:47;;;;;;;19.23;13.75;;;0.80;72.70;;;;;;5031354;28;20037;-68
2022/11/14 01:13:14;;;;;;;23.58;16.30;;;0.70;71.50;;;;;;5038081;28;20052;-69
2022/11/14 01:15:42;;;;;;;16.42;12.63;;;0.70;70.50;;;;;;5024819;28;20034;-68
2022/11/14 01:18:10;;;;;;;17.65;12.70;;;0.80;69.10;;;;;;5028708;28;20048;-68
2022/11/14 01:20:41;;;;;;;19.00;14.23;;;0.80;69.30;;;;;;5021625;28;20053;-68
2022/11/14 01:23:11;;;;;;;17.58;12.25;;;0.80;69.90;;;;;;5020219;28;20030;-69
2022/11/14 01:25:38;;;;;;;26.25;15.85;;;0.90;69.50;;;;;;5033396;28;20075;-69
2022/11/14 01:28:09;;;;;;;26.17;16.08;;;0.80;70.40;;;;;;5028191;28;20456;-68
2022/11/14 01:30:35;;;;;;;20.73;13.45;;;0.80;71.80;;;;;;5028116;28;20052;-68
2022/11/14 01:33:01;;;;;;;21.98;15.05;;;0.70;71.10;;;;;;5039735;28;20030;-69
2022/11/14 01:35:27;;;;;;;18.35;13.15;;;0.80;70.10;;;;;;5012285;28;20025;-69
2022/11/14 01:37:53;;;;;;;18.45;13.43;;;0.80;69.80;;;;;;5021012;28;20033;-68
2022/11/14 01:40:18;;;;;;;24.05;15.07;;;0.80;68.70;;;;;;5018690;28;20073;-68
2022/11/14 01:43:15;;;;;;;21.63;14.00;;;0.80;69.80;;;;;;5021058;28;20100;-67
2022/11/14 01:45:55;;;;;;;17.75;12.27;;;0.80;69.90;;;;;;5032595;28;20044;-68
2022/11/14 01:48:55;;;;;;;18.88;12.82;;;0.80;68.40;;;;;;5025273;28;20083;-68
2022/11/14 01:51:39;;;;;;;16.33;11.25;;;0.90;68.60;;;;;;5021627;28;20029;-68
2022/11/14 01:54:11;;;;;;;17.15;11.25;;;0.80;69.30;;;;;;5032330;28;20053;-67
2022/11/14 01:56:47;;;;;;;11.77;8.25;;;0.70;70.00;;;;;;5036183;28;20039;-68
2022/11/14 01:59:18;;;;;;;11.73;8.63;;;0.70;68.50;;;;;;5018382;28;20022;-68
2022/11/14 02:01:47;;;;;;;15.90;10.38;;;0.80;68.00;;;;;;5031931;28;20026;-68
2022/11/14 02:04:19;;;;;;;15.80;10.38;;;0.70;68.30;;;;;;5021617;28;20028;-68
2022/11/14 02:06:46;;;;;;;14.90;9.02;;;0.70;68.70;;;;;;5018319;28;20310;-68
2022/11/14 02:09:12;;;;;;;14.10;8.35;;;0.80;67.90;;;;;;5024482;28;20057;-68
2022/11/14 02:11:42;;;;;;;17.88;11.38;;;0.90;67.50;;;;;;5037651;28;20030;-68
2022/11/14 02:14:08;;;;;;;14.02;9.25;;;0.90;67.80;;;;;;5030881;28;20052;-68
2022/11/14 02:16:34;;;;;;;19.52;12.25;;;0.90;67.90;;;;;;5036953;28;20369;-68
2022/11/14 02:19:00;;;;;;;12.90;9.35;;;0.90;67.80;;;;;;5044506;28;20026;-68
2022/11/14 02:21:25;;;;;;;14.52;8.65;;;1.00;67.40;;;;;;5025238;28;20029;-68
2022/11/14 02:23:51;;;;;;;11.82;8.57;;;1.10;67.50;;;;;;5018687;28;20411;-68
2022/11/14 02:26:22;;;;;;;10.25;7.25;;;1.00;68.20;;;;;;5034951;28;20142;-68
2022/11/14 02:28:48;;;;;;;10.70;7.70;;;1.10;67.60;;;;;;5036284;28;20049;-67
2022/11/14 02:31:15;;;;;;;11.70;7.57;;;1.10;67.60;;;;;;5035259;28;20445;-68
2022/11/14 02:33:41;;;;;;;11.60;7.45;;;1.10;67.30;;;;;;5022267;28;20493;-68
2022/11/14 02:36:07;;;;;;;12.20;8.73;;;1.20;67.40;;;;;;5036301;28;20030;-68
2022/11/14 02:38:33;;;;;;;11.82;7.70;;;1.40;66.80;;;;;;5028050;28;20329;-68
2022/11/14 02:40:59;;;;;;;12.88;8.85;;;1.50;66.70;;;;;;5019971;28;20437;-68
2022/11/14 02:43:25;;;;;;;12.98;8.82;;;1.60;67.10;;;;;;5034085;28;20028;-68
2022/11/14 02:45:51;;;;;;;13.30;8.38;;;1.80;66.30;;;;;;5034082;28;20108;-68
2022/11/14 02:48:17;;;;;;;11.85;8.48;;;2.20;65.60;;;;;;5015405;28;20029;-67
2022/11/14 02:50:42;;;;;;;15.52;9.52;;;2.50;66.10;;;;;;5045198;28;20052;-68
2022/11/14 02:53:08;;;;;;;13.38;9.60;;;2.60;67.90;;;;;;5023209;28;20426;-68
2022/11/14 02:55:34;;;;;;;12.50;9.32;;;2.70;69.80;;;;;;5026287;28;20116;-68
2022/11/14 02:57:59;;;;;;;11.63;7.53;;;2.80;72.60;;;;;;5032624;28;20025;-68
2022/11/14 03:00:25;;;;;;;12.23;9.25;;;2.90;73.70;;;;;;5022134;28;20105;-68
2022/11/14 03:02:52;;;;;;;11.18;7.75;;;2.90;76.50;;;;;;5026189;28;20087;-68
2022/11/14 03:05:18;;;;;;;12.13;8.18;;;2.90;78.00;;;;;;5046836;28;20029;-68
2022/11/14 03:07:44;;;;;;;14.60;8.55;;;3.10;78.50;;;;;;5037164;28;20040;-68
2022/11/14 03:10:10;;;;;;;11.57;7.78;;;3.00;81.30;;;;;;5029560;28;20104;-68
2022/11/14 03:12:36;;;;;;;11.98;7.85;;;2.90;81.30;;;;;;5026146;28;20326;-68
2022/11/14 03:15:04;;;;;;;9.82;6.82;;;2.80;81.20;;;;;;5022526;28;20342;-68
2022/11/14 03:17:32;;;;;;;9.45;6.90;;;2.90;78.00;;;;;;5033416;28;20021;-68
2022/11/14 03:19:57;;;;;;;8.95;6.10;;;3.20;77.10;;;;;;5027419;28;20097;-68
2022/11/14 03:22:23;;;;;;;9.68;6.10;;;3.50;80.30;;;;;;5020460;28;20133;-68
2022/11/14 03:24:49;;;;;;;9.40;6.55;;;3.50;83.90;;;;;;5022204;28;20030;-68
2022/11/14 03:27:14;;;;;;;8.07;5.85;;;3.40;84.20;;;;;;5017460;28;20041;-68
2022/11/14 03:29:40;;;;;;;10.38;6.95;;;3.40;83.40;;;;;;5003369;28;20040;-68
2022/11/14 03:32:06;;;;;;;9.43;6.90;;;3.30;84.80;;;;;;5017122;28;20369;-68
2022/11/14 03:34:31;;;;;;;9.55;6.97;;;3.30;84.50;;;;;;5025376;28;20487;-68
2022/11/14 03:36:57;;;;;;;10.98;7.85;;;3.30;83.80;;;;;;5026905;28;20053;-68
2022/11/14 03:39:23;;;;;;;11.20;8.07;;;3.50;84.20;;;;;;5028128;28;20084;-68
2022/11/14 03:41:50;;;;;;;12.25;8.73;;;3.50;86.50;;;;;;5017961;28;20450;-67
2022/11/14 03:44:19;;;;;;;11.75;7.68;;;3.60;87.00;;;;;;5031422;28;20033;-68
2022/11/14 03:46:44;;;;;;;11.38;8.07;;;3.60;87.00;;;;;;5019660;28;20033;-67
2022/11/14 03:49:10;;;;;;;10.77;7.57;;;3.60;87.20;;;;;;5029879;28;20029;-68
2022/11/14 03:51:36;;;;;;;11.75;7.90;;;3.70;86.90;;;;;;5016256;28;20025;-67
2022/11/14 03:54:01;;;;;;;10.00;7.20;;;3.70;87.70;;;;;;5028717;28;20037;-69
2022/11/14 03:56:27;;;;;;;12.48;8.38;;;3.80;88.00;;;;;;5025650;28;20028;-69
2022/11/14 03:58:53;;;;;;;12.85;8.43;;;4.00;87.80;;;;;;5029951;28;20030;-69
2022/11/14 04:01:18;;;;;;;10.40;7.18;;;4.20;89.10;;;;;;5025956;28;20032;-69
2022/11/14 04:03:44;;;;;;;11.32;7.53;;;4.40;91.70;;;;;;5031263;28;20017;-69
2022/11/14 04:06:09;;;;;;;10.30;7.70;;;4.50;93.10;;;;;;5020749;28;20799;-69
2022/11/14 04:08:35;;;;;;;13.07;8.70;;;4.50;92.90;;;;;;5032212;28;20319;-69
2022/11/14 04:11:01;;;;;;;11.82;8.07;;;4.60;92.80;;;;;;5020792;28;20197;-68
2022/11/14 04:13:27;;;;;;;12.13;8.15;;;4.70;93.80;;;;;;5025517;28;20356;-68
2022/11/14 04:15:55;;;;;;;12.90;8.30;;;4.80;94.60;;;;;;5020688;28;20033;-68
2022/11/14 04:18:21;;;;;;;12.57;7.43;;;5.00;96.60;;;;;;5024092;28;20083;-69
2022/11/14 04:20:46;;;;;;;12.07;7.53;;;5.10;97.60;;;;;;5008705;28;20029;-69
2022/11/14 04:23:12;;;;;;;8.93;6.10;;;5.40;98.00;;;;;;5027112;28;20030;-69
2022/11/14 04:25:37;;;;;;;8.52;5.45;;;5.70;98.00;;;;;;5030804;28;20034;-69
2022/11/14 04:28:03;;;;;;;9.02;5.78;;;6.10;98.00;;;;;;5028440;28;20053;-69
2022/11/14 04:30:29;;;;;;;8.65;5.63;;;6.20;98.00;;;;;;5027397;28;20041;-69
2022/11/14 04:32:54;;;;;;;8.25;5.70;;;6.20;98.00;;;;;;5029187;28;20026;-69
2022/11/14 04:35:20;;;;;;;8.85;5.80;;;6.20;98.00;;;;;;5030891;28;20362;-69
2022/11/14 04:37:46;;;;;;;34.75;19.55;;;6.30;98.00;;;;;;5021908;28;20472;-69
2022/11/14 04:40:11;;;;;;;16.63;10.07;;;6.40;98.00;;;;;;5029445;28;20021;-69
2022/11/14 04:42:43;;;;;;;10.15;6.47;;;6.70;98.00;;;;;;5022449;28;20054;-69
2022/11/14 04:45:09;;;;;;;11.65;7.03;;;6.90;98.00;;;;;;5035770;28;20361;-69
2022/11/14 04:47:35;;;;;;;9.32;6.10;;;7.00;98.00;;;;;;5009082;28;20325;-69
2022/11/14 04:50:01;;;;;;;10.48;7.22;;;7.00;98.00;;;;;;5037922;28;20030;-69
2022/11/14 04:52:27;;;;;;;12.55;7.60;;;7.00;98.00;;;;;;5027811;28;20041;-69
2022/11/14 04:54:53;;;;;;;8.18;5.15;;;7.00;98.00;;;;;;5046514;28;20040;-69
2022/11/14 04:57:19;;;;;;;10.75;5.30;;;7.10;98.00;;;;;;5038638;28;20330;-69
2022/11/14 04:59:44;;;;;;;6.07;4.15;;;7.20;98.00;;;;;;5033011;28;20021;-69
2022/11/14 05:02:10;;;;;;;8.80;5.18;;;7.30;98.00;;;;;;5034716;28;20168;-69
2022/11/14 05:04:36;;;;;;;8.48;5.03;;;7.30;98.00;;;;;;5032614;28;21900;-69
2022/11/14 05:07:02;;;;;;;8.05;5.28;;;7.20;98.00;;;;;;5011132;28;20062;-69
2022/11/14 05:09:28;;;;;;;10.30;6.93;;;7.00;98.00;;;;;;5025308;28;20022;-69
2022/11/14 05:11:53;;;;;;;10.70;6.88;;;6.70;98.00;;;;;;5033010;28;20102;-69
2022/11/14 05:14:19;;;;;;;8.63;6.38;;;6.50;98.00;;;;;;5031405;28;20094;-69
2022/11/14 05:16:44;;;;;;;10.55;6.45;;;6.40;98.00;;;;;;5034913;28;20033;-69
2022/11/14 05:19:10;;;;;;;10.50;7.25;;;6.40;98.00;;;;;;5029079;28;20030;-69
2022/11/14 05:21:38;;;;;;;11.50;7.32;;;6.40;98.00;;;;;;5036562;28;20018;-69
2022/11/14 05:24:04;;;;;;;12.57;7.03;;;6.50;98.00;;;;;;5045470;28;20025;-69
2022/11/14 05:26:29;;;;;;;9.55;6.55;;;6.50;98.00;;;;;;5030445;28;20030;-69
2022/11/14 05:28:55;;;;;;;9.57;6.20;;;6.60;98.00;;;;;;5034821;28;20057;-68
2022/11/14 05:31:21;;;;;;;11.05;7.47;;;6.70;98.00;;;;;;5033438;28;20021;-69
2022/11/14 05:33:50;;;;;;;10.57;7.78;;;6.70;98.00;;;;;;5040188;28;20017;-69
2022/11/14 05:36:16;;;;;;;10.88;8.00;;;6.70;98.00;;;;;;5034820;28;20042;-69
2022/11/14 05:38:42;;;;;;;13.75;8.85;;;6.60;98.00;;;;;;5034297;28;20434;-69
2022/11/14 05:41:13;;;;;;;11.65;8.20;;;6.50;98.00;;;;;;5032531;28;20168;-69
2022/11/14 05:43:39;;;;;;;16.52;9.90;;;6.60;98.00;;;;;;5033593;28;20106;-69
2022/11/14 05:46:08;;;;;;;12.27;8.88;;;6.60;98.00;;;;;;5031591;28;20083;-69
2022/11/14 05:48:34;;;;;;;12.00;8.98;;;6.50;98.00;;;;;;5029545;28;20042;-69
2022/11/14 05:51:01;;;;;;;12.30;8.98;;;6.50;98.00;;;;;;5032397;28;20032;-69
2022/11/14 05:53:28;;;;;;;15.40;9.98;;;6.50;98.00;;;;;;5034504;28;20052;-69
2022/11/14 05:55:58;;;;;;;15.18;9.30;;;6.50;98.00;;;;;;5029895;28;20032;-69
2022/11/14 05:58:24;;;;;;;14.00;9.02;;;6.60;98.00;;;;;;5030266;28;20032;-69
2022/11/14 06:01:00;;;;;;;13.07;8.25;;;6.70;98.00;;;;;;5035495;28;20025;-69
2022/11/14 06:03:30;;;;;;;12.65;8.93;;;6.90;98.00;;;;;;5047375;28;20021;-69
2022/11/14 06:05:55;;;;;;;14.05;8.80;;;7.10;98.00;;;;;;5034810;28;20056;-69
2022/11/14 06:08:23;;;;;;;12.80;7.68;;;7.20;98.00;;;;;;5031278;28;20426;-68
2022/11/14 06:10:49;;;;;;;13.07;7.88;;;7.40;98.00;;;;;;5032710;28;20411;-69
2022/11/14 06:13:17;;;;;;;13.10;7.50;;;7.50;98.00;;;;;;5028043;28;20088;-68
2022/11/14 06:15:43;;;;;;;10.02;6.05;;;7.70;98.00;;;;;;5023553;28;20038;-69
2022/11/14 06:18:09;;;;;;;8.50;4.75;;;7.90;98.00;;;;;;5044297;28;20338;-69
2022/11/14 06:20:35;;;;;;;9.82;6.07;;;8.30;98.00;;;;;;5033986;28;20789;-69
2022/11/14 06:23:00;;;;;;;7.82;5.00;;;8.70;98.00;;;;;;5034563;28;20053;-69
2022/11/14 06:25:26;;;;;;;8.35;4.47;;;8.80;98.00;;;;;;5035584;28;20052;-69
2022/11/14 06:27:52;;;;;;;7.82;4.90;;;9.00;97.30;;;;;;5016042;28;20056;-69
2022/11/14 06:30:17;;;;;;;6.40;3.78;;;9.20;96.70;;;;;;5029481;28;20037;-69
2022/11/14 06:32:43;;;;;;;6.45;3.78;;;9.30;96.60;;;;;;5019175;28;20303;-69
2022/11/14 06:35:14;;;;;;;8.60;3.58;;;9.30;96.00;;;;;;5035510;28;20026;-69
2022/11/14 06:37:40;;;;;;;6.25;3.60;;;9.40;95.50;;;;;;5008627;28;20414;-68
2022/11/14 06:40:06;;;;;;;6.20;3.42;;;9.50;95.20;;;;;;5039652;28;20082;-68
2022/11/14 06:42:32;;;;;;;7.72;3.35;;;9.60;95.20;;;;;;5029070;28;20387;-68
2022/11/14 06:44:57;;;;;;;7.43;3.50;;;9.60;95.70;;;;;;5032358;28;20041;-68
2022/11/14 06:47:23;;;;;;;7.97;2.60;;;9.60;94.80;;;;;;5055039;28;20029;-68
2022/11/14 06:49:49;;;;;;;5.95;3.13;;;9.80;93.50;;;;;;5043499;28;20113;-70
2022/11/14 06:52:14;;;;;;;6.70;2.58;;;9.80;93.60;;;;;;5034524;28;20053;-70
2022/11/14 06:54:40;;;;;;;5.22;2.40;;;9.90;93.20;;;;;;5024863;28;20071;-70
2022/11/14 06:57:06;;;;;;;5.93;3.15;;;9.90;93.40;;;;;;5036718;28;20032;-69
2022/11/14 06:59:31;;;;;;;3.92;2.10;;;9.70;94.10;;;;;;5039381;28;20442;-70
2022/11/14 07:01:57;;;;;;;5.78;2.50;;;9.70;93.60;;;;;;5038528;28;20056;-69
2022/11/14 07:04:23;;;;;;;5.05;1.80;;;9.90;93.30;;;;;;5033942;28;20028;-69
2022/11/14 07:06:48;;;;;;;3.83;1.65;;;10.00;92.70;;;;;;5025529;28;20104;-69
2022/11/14 07:09:14;;;;;;;4.05;2.20;;;10.10;92.80;;;;;;5033327;28;20030;-69
2022/11/14 07:11:39;;;;;;;7.68;2.83;;;10.10;92.90;;;;;;5031207;28;20032;-69
2022/11/14 07:14:05;;;;;;;5.43;2.35;;;10.10;93.60;;;;;;5031692;28;20058;-69
2022/11/14 07:16:36;;;;;;;5.35;2.00;;;10.10;94.20;;;;;;5025442;28;20025;-69
2022/11/14 07:19:05;;;;;;;3.92;1.80;;;10.00;94.70;;;;;;5026099;28;20401;-69
2022/11/14 07:21:34;;;;;;;4.75;1.98;;;9.90;96.50;;;;;;5020727;28;20410;-69
2022/11/14 07:24:00;;;;;;;6.15;2.35;;;9.50;98.00;;;;;;5032186;28;20453;-71
2022/11/14 07:26:26;;;;;;;4.45;2.45;;;9.10;98.00;;;;;;5017684;28;20029;-71
2022/11/14 07:28:54;;;;;;;4.95;2.08;;;8.70;97.60;;;;;;5035129;28;20069;-72
2022/11/14 07:31:20;;;;;;;6.63;2.42;;;8.40;96.10;;;;;;5024453;28;20370;-71
2022/11/14 07:33:46;;;;;;;4.93;2.38;;;8.20;94.30;;;;;;5031322;28;20037;-70
2022/11/14 07:36:13;;;;;;;4.68;2.20;;;8.20;95.40;;;;;;5029368;28;20030;-70
2022/11/14 07:38:40;;;;;;;4.85;2.60;;;8.10;94.40;;;;;;5035935;28;20045;-70
2022/11/14 07:41:08;;;;;;;5.60;2.20;;;8.10;94.10;;;;;;5035977;28;20054;-70
2022/11/14 07:43:36;;;;;;;4.80;2.58;;;8.00;92.60;;;;;;5036891;28;20052;-70
2022/11/14 07:46:05;;;;;;;4.45;2.60;;;8.00;92.90;;;;;;5028628;28;20057;-71
2022/11/14 07:48:31;;;;;;;6.38;2.42;;;7.90;90.70;;;;;;5039375;28;20053;-71
2022/11/14 07:51:02;;;;;;;12.07;3.28;;;7.80;89.90;;;;;;5038318;28;20068;-70
2022/11/14 07:53:28;;;;;;;5.95;2.50;;;7.80;89.00;;;;;;5021553;28;20035;-70
2022/11/14 07:55:55;;;;;;;6.60;2.90;;;7.80;89.00;;;;;;5028367;28;20025;-70
2022/11/14 07:58:21;;;;;;;4.88;2.33;;;7.80;88.80;;;;;;5026276;28;20305;-70
2022/11/14 08:00:47;;;;;;;4.72;2.85;;;7.80;89.40;;;;;;5035305;28;20422;-70
2022/11/14 08:03:13;;;;;;;6.07;3.28;;;7.80;88.80;;;;;;5035228;28;20060;-70
2022/11/14 08:05:38;;;;;;;5.25;2.78;;;7.80;89.70;;;;;;5035718;28;20029;-69
2022/11/14 08:08:04;;;;;;;5.88;2.60;;;7.70;88.00;;;;;;5031210;28;20087;-69
2022/11/14 08:10:30;;;;;;;6.03;2.90;;;7.70;88.70;;;;;;5037019;28;20022;-69
2022/11/14 08:13:00;;;;;;;4.90;2.83;;;7.70;88.70;;;;;;5035060;28;20037;-69
2022/11/14 08:15:26;;;;;;;7.03;2.38;;;7.70;88.50;;;;;;5036001;28;20088;-70
2022/11/14 08:17:56;;;;;;;6.95;2.88;;;7.70;88.40;;;;;;5036056;28;20037;-69
2022/11/14 08:20:21;;;;;;;7.70;2.97;;;7.70;88.70;;;;;;5017523;28;20153;-69
2022/11/14 08:22:47;;;;;;;5.07;2.58;;;7.60;88.70;;;;;;5016624;28;20034;-69
2022/11/14 08:25:13;;;;;;;5.88;2.80;;;7.60;87.90;;;;;;5016450;28;20112;-69
2022/11/14 08:27:38;;;;;;;5.68;2.90;;;7.70;89.60;;;;;;5015569;28;20148;-70
2022/11/14 08:30:04;;;;;;;7.15;3.05;;;7.60;89.00;;;;;;5016296;28;20034;-69
2022/11/14 08:32:30;;;;;;;4.20;2.40;;;7.70;89.30;;;;;;5021142;28;20053;-70
2022/11/14 08:34:56;;;;;;;5.38;2.60;;;7.70;88.70;;;;;;5031614;28;20503;-70
2022/11/14 08:37:21;;;;;;;5.45;3.25;;;7.70;88.20;;;;;;5038194;28;20464;-70
2022/11/14 08:39:47;;;;;;;13.77;2.63;;;7.70;87.40;;;;;;5039765;28;20032;-70
2022/11/14 08:42:13;;;;;;;17.48;4.63;;;7.60;87.80;;;;;;5039188;28;20029;-70
2022/11/14 08:44:38;;;;;;;9.68;2.60;;;7.70;88.80;;;;;;5039140;28;20060;-70
2022/11/14 08:47:04;;;;;;;5.25;2.28;;;7.70;89.20;;;;;;5038641;28;20361;-69
2022/11/14 08:49:30;;;;;;;5.38;2.58;;;7.70;90.10;;;;;;5021778;28;20488;-70
2022/11/14 08:51:55;;;;;;;5.32;2.20;;;7.70;90.90;;;;;;5038302;28;20112;-69
2022/11/14 08:54:21;;;;;;;9.23;3.42;;;7.80;91.30;;;;;;5038308;28;20033;-69
2022/11/14 08:56:47;;;;;;;6.72;3.33;;;7.80;91.40;;;;;;5039250;28;20052;-69
2022/11/14 08:59:12;;;;;;;8.40;2.83;;;7.80;91.00;;;;;;5039183;28;20013;-69
2022/11/14 09:01:38;;;;;;;7.63;2.80;;;7.80;91.50;;;;;;5037795;28;20025;-69
2022/11/14 09:04:04;;;;;;;5.43;2.20;;;7.80;91.50;;;;;;5039162;28;20037;-69
2022/11/14 09:06:29;;;;;;;4.40;2.20;;;7.90;91.90;;;;;;5038903;28;20060;-69
2022/11/14 09:08:55;;;;;;;7.05;2.85;;;8.00;93.10;;;;;;5037886;28;20112;-69
2022/11/14 09:11:21;;;;;;;4.47;2.17;;;8.00;91.20;;;;;;5038806;28;20029;-69
2022/11/14 09:13:46;;;;;;;4.05;1.80;;;8.00;92.90;;;;;;5038538;28;20029;-69
2022/11/14 09:16:12;;;;;;;3.33;1.55;;;8.10;96.40;;;;;;5031710;28;20109;-69
2022/11/14 09:18:38;;;;;;;4.05;1.77;;;8.10;95.90;;;;;;5019469;28;20045;-69
2022/11/14 09:21:07;;;;;;;4.28;1.95;;;8.10;96.00;;;;;;5020316;28;20164;-69
2022/11/14 09:23:33;;;;;;;5.22;1.83;;;8.10;94.20;;;;;;5037435;28;20096;-69
2022/11/14 09:26:07;;;;;;;5.65;1.77;;;8.10;96.90;;;;;;5038437;28;20026;-69
2022/11/14 09:28:36;;;;;;;3.88;1.90;;;8.20;96.90;;;;;;5038305;28;20183;-69
2022/11/14 09:31:05;;;;;;;10.68;1.85;;;8.10;95.60;;;;;;5038548;28;20025;-69
2022/11/14 09:33:34;;;;;;;4.07;2.00;;;8.20;98.00;;;;;;5031320;28;20415;-69
2022/11/14 09:36:03;;;;;;;4.82;2.45;;;8.20;97.40;;;;;;5035548;28;20166;-69
2022/11/14 09:38:29;;;;;;;4.22;2.10;;;8.20;94.70;;;;;;5036844;28;20021;-69
2022/11/14 09:41:09;;;;;;;4.22;2.03;;;8.30;94.30;;;;;;5053739;28;20108;-69
2022/11/14 09:43:52;;;;;;;4.05;1.92;;;8.50;95.30;;;;;;5038365;28;20022;-71
2022/11/14 09:46:24;;;;;;;4.90;2.10;;;8.70;95.30;;;;;;5038187;28;20025;-71
2022/11/14 09:48:51;;;;;;;3.63;1.88;;;8.70;97.00;;;;;;5037916;28;20022;-70
2022/11/14 09:51:31;;;;;;;3.05;1.75;;;8.70;98.00;;;;;;5037416;28;20052;-69
2022/11/14 09:54:19;;;;;;;4.82;2.60;;;8.70;98.00;;;;;;5051140;28;20022;-70
2022/11/14 09:56:45;;;;;;;4.15;2.30;;;8.70;96.80;;;;;;5037726;28;20029;-70
2022/11/14 09:59:12;;;;;;;4.88;2.03;;;8.60;97.20;;;;;;5038204;28;20022;-70
2022/11/14 10:02:13;;;;;;;3.45;1.88;;;8.60;96.50;;;;;;5037972;28;20406;-70
2022/11/14 10:04:57;;;;;;;4.90;2.80;;;8.60;95.40;;;;;;5018112;28;20112;-70
2022/11/14 10:08:00;;;;;;;5.82;2.78;;;8.60;94.90;;;;;;5033981;28;20091;-70
2022/11/14 10:10:53;;;;;;;4.40;2.13;;;8.60;96.00;;;;;;5020221;28;20322;-70
2022/11/14 10:13:54;;;;;;;4.55;2.20;;;8.60;94.30;;;;;;5013382;28;20052;-70
2022/11/14 10:16:35;;;;;;;4.28;1.90;;;8.60;94.60;;;;;;5014184;28;20120;-69
2022/11/14 10:19:28;;;;;;;3.60;1.75;;;8.60;96.90;;;;;;5020143;28;20368;-70
2022/11/14 10:22:32;;;;;;;4.00;1.88;;;8.60;98.00;;;;;;5021628;28;20032;-70
2022/11/14 10:25:06;;;;;;;3.60;1.70;;;8.70;97.80;;;;;;5037335;28;20029;-69
2022/11/14 10:27:48;;;;;;;4.07;2.17;;;8.70;96.60;;;;;;5037350;28;20045;-69
2022/11/14 10:30:15;;;;;;;3.05;1.70;;;8.80;98.00;;;;;;5037357;28;20021;-70
2022/11/14 10:32:56;;;;;;;3.53;1.83;;;8.90;98.00;;;;;;5037166;28;20034;-69
2022/11/14 10:35:33;;;;;;;3.13;1.60;;;9.00;98.00;;;;;;5037499;28;20037;-69
2022/11/14 10:38:29;;;;;;;3.63;1.60;;;8.90;98.00;;;;;;5017447;28;20109;-69
2022/11/14 10:41:01;;;;;;;3.55;1.80;;;9.00;98.00;;;;;;5037289;28;20083;-69
2022/11/14 10:43:47;;;;;;;3.75;1.60;;;9.10;98.00;;;;;;5034462;28;20030;-69
2022/11/14 10:46:19;;;;;;;4.20;2.10;;;9.10;98.00;;;;;;5036953;28;20036;-69
2022/11/14 10:48:48;;;;;;;4.18;1.98;;;9.00;98.00;;;;;;5037008;28;20025;-69
2022/11/14 10:51:42;;;;;;;5.35;2.03;;;8.90;98.00;;;;;;5036810;28;20029;-69
2022/11/14 10:54:44;;;;;;;3.45;1.67;;;8.90;98.00;;;;;;5027520;28;20041;-69
2022/11/14 10:57:27;;;;;;;6.15;2.50;;;8.80;98.00;;;;;;4976042;28;20066;-69
2022/11/14 10:59:54;;;;;;;3.67;1.98;;;8.80;97.20;;;;;;5028628;28;20045;-69
2022/11/14 11:02:20;;;;;;;4.80;1.90;;;8.70;96.60;;;;;;5036927;28;20036;-69
2022/11/14 11:04:45;;;;;;;4.93;2.25;;;8.70;96.60;;;;;;5030599;28;20327;-69
2022/11/14 11:11:28;;;;;;;4.15;2.10;;;8.60;96.90;;;;;;5024137;28;20135;-70
2022/11/14 11:12:46;;;;;;;6.57;4.18;;;8.70;97.70;;;;;;5030438;28;20064;-70
2022/11/14 11:15:22;;;;;;;9.18;7.05;;;8.70;98.00;;;;;;5019967;28;20087;-69
2022/11/14 11:17:59;;;;;;;6.90;3.10;;;8.70;97.50;;;;;;5023000;28;20118;-70
2022/11/14 11:20:27;;;;;;;4.72;2.47;;;8.70;97.70;;;;;;5025521;28;20052;-69
2022/11/14 11:23:09;;;;;;;5.03;2.60;;;8.70;98.00;;;;;;5023879;28;20101;-69
2022/11/14 11:25:36;;;;;;;4.30;2.40;;;8.70;97.10;;;;;;5016729;28;20028;-70
2022/11/14 11:28:21;;;;;;;4.15;2.22;;;8.70;97.10;;;;;;5016877;28;20095;-70
2022/11/14 11:30:56;;;;;;;;;;;8.80;97.60;;;;;;5029771;28;20032;-70
2022/11/14 11:33:25;;;;;;;6.00;3.17;;;8.80;98.00;;;;;;5030351;28;19913;-70
2022/11/14 11:35:56;;;;;;;4.55;2.50;;;8.90;98.00;;;;;;5016463;28;20076;-69
2022/11/14 11:38:26;;;;;;;4.50;2.40;;;9.00;98.00;;;;;;5033159;28;20040;-69
2022/11/14 11:41:10;;;;;;;4.80;2.17;;;9.20;98.00;;;;;;5033544;28;20056;-69
2022/11/14 11:43:46;;;;;;;5.25;2.83;;;9.40;98.00;;;;;;5021340;28;20033;-69
2022/11/14 11:46:47;;;;;;;4.78;2.78;;;9.50;98.00;;;;;;5030587;28;20057;-69
2022/11/14 11:49:49;;;;;;;4.35;2.40;;;9.50;98.00;;;;;;5012729;28;20045;-69
2022/11/14 11:52:34;;;;;;;4.30;2.30;;;9.60;98.00;;;;;;5013651;28;20121;-69
2022/11/14 11:55:03;;;;;;;4.28;2.33;;;9.60;98.00;;;;;;5020014;28;20044;-69
2022/11/14 11:57:46;;;;;;;5.72;2.42;;;9.70;98.00;;;;;;5016706;28;20026;-69
2022/11/14 12:00:16;;;;;;;4.30;2.28;;;9.90;98.00;;;;;;5025941;28;20071;-69
2022/11/14 12:02:45;;;;;;;4.82;2.42;;;10.10;98.00;;;;;;5007765;28;20125;-69
2022/11/14 12:05:43;;;;;;;4.55;2.47;;;10.50;98.00;;;;;;5019136;28;20323;-69
2022/11/14 12:08:27;;;;;;;4.28;2.25;;;11.20;98.00;;;;;;4997412;28;20040;-69
2022/11/14 12:10:54;;;;;;;4.80;2.78;;;11.90;97.70;;;;;;5017453;28;20029;-70
2022/11/14 12:13:41;;;;;;;4.72;2.17;;;11.70;96.60;;;;;;5034593;28;20039;-69
2022/11/14 12:16:37;;;;;;;5.05;2.38;;;11.70;96.60;;;;;;5016104;28;20030;-69
2022/11/14 12:19:40;;;;;;;4.50;2.17;;;11.70;96.40;;;;;;5023164;28;20025;-69
2022/11/14 12:22:17;;;;;;;4.50;2.50;;;11.50;95.70;;;;;;5029905;28;20106;-69
2022/11/14 12:25:01;;;;;;;5.07;2.22;;;11.30;97.00;;;;;;5049522;28;20026;-69
2022/11/14 12:27:38;;;;;;;5.95;2.58;;;11.10;97.20;;;;;;5018072;28;20337;-68
2022/11/14 12:30:22;;;;;;;22.33;3.75;;;11.00;97.50;;;;;;5026685;28;20377;-68
2022/11/14 12:32:50;;;;;;;5.63;2.43;;;10.80;97.40;;;;;;5036649;28;20091;-68
2022/11/14 12:35:21;;;;;;;7.38;2.78;;;10.80;97.70;;;;;;5033749;28;20029;-68
2022/11/14 12:37:50;;;;;;;4.82;2.55;;;10.80;97.90;;;;;;5032387;28;20365;-70
2022/11/14 12:40:25;;;;;;;5.32;2.50;;;10.80;98.00;;;;;;5037255;28;20021;-70
2022/11/14 12:42:52;;;;;;;5.43;2.40;;;10.90;97.60;;;;;;5035313;28;20108;-70
2022/11/14 12:45:39;;;;;;;5.13;2.50;;;11.00;96.90;;;;;;5023098;28;20030;-69
2022/11/14 12:48:41;;;;;;;3.78;2.10;;;11.20;97.80;;;;;;5015803;28;20030;-70
2022/11/14 12:51:42;;;;;;;6.72;2.95;;;11.60;96.60;;;;;;5015040;28;20030;-69
2022/11/14 12:54:44;;;;;;;5.82;2.42;;;11.70;96.50;;;;;;4973134;28;20038;-69
2022/11/14 12:57:46;;;;;;;6.00;2.45;;;12.10;94.50;;;;;;5028384;28;20376;-69
2022/11/14 13:00:07;;;;;;;7.38;4.45;;;12.60;94.10;;;;;;5029317;28;20026;-69
2022/11/14 13:02:59;;;;;;;4.35;1.80;;;13.10;91.90;;;;;;5034565;28;20423;-69
2022/11/14 13:05:53;;;;;;;6.90;3.00;;;13.10;91.40;;;;;;5041029;28;20484;-70
2022/11/14 13:08:43;;;;;;;4.65;2.30;;;13.00;90.60;;;;;;5037805;28;20441;-69